Terminal Aerodrome Forecast
Issued by NWS

Home | Current Version | Previous Version | Text Only | Print | Product List | Glossary On
Versions: 1 2 3 4 5 6 7 8 9 10 11 12 13 14 15 16 17 18 19 20 21 22 23 24 25 26 27 28 29 30 31 32 33
000
FTUS44 KEWX 010500 RRA
TAFSSF
TAF
KSSF 010541Z 0106/0206 13005KT P6SM OVC016
     FM010800 16004KT 5SM BR OVC009
     FM011100 16004KT 1/2SM FG OVC004
     FM011600 24009KT 5SM -RA BR OVC008
     FM012000 31013KT P6SM OVC050
     FM020000 02015G25KT P6SM BKN100=

USA.gov is the U.S. government's official web portal to all federal, state and local government web resources and services.